Flight Track Log - Related Links

Times and Time Zones

All times are in EDT time to prevent confusion due to time zone crossing. See the SWA1346 flight status page for this flight to view local times or setup timezone preferences in your user account.

Time Position Orientation Groundspeed Altitude Reporting Facility
EDT Latitude Longitude Course Direction KTS MPH feet Rate Location/Type
Sat 08:04:53 PM 45.5989 -122.6328 299° West 176 203 1,100  Level Seattle Center
Sat 08:05:07 PM 45.6033 -122.6444 299° West 170 196 1,600 1,946 Climbing Seattle Center
Sat 08:05:30 PM 45.6131 -122.6703 298° West 175 201 2,300 2,557 Climbing Seattle Center
Sat 08:06:08 PM 45.6344 -122.7150 304° West 209 241 4,200 3,200 Climbing Seattle Center
Sat 08:06:30 PM 45.6456 -122.7467 297° West 235 270 5,500 3,200 Climbing Seattle Center
Sat 08:07:08 PM 45.6303 -122.7883 242° Southwest 230 265 7,400 3,148 Climbing Seattle Center
Sat 08:07:31 PM 45.6064 -122.7997 198° South 243 280 8,700 2,951 Climbing Seattle Center
Sat 08:08:09 PM 45.5600 -122.8189 196° South 248 285 10,400 1,776 Climbing Seattle Center
Sat 08:09:09 PM 45.4797 -122.8550 198° South 313 360 11,600 1,785 Climbing Seattle Center
Sat 08:10:10 PM 45.3850 -122.8967 197° South 360 414 14,000 2,803 Climbing Seattle Center
Sat 08:11:11 PM 45.2908 -122.9381 197° South 357 411 17,300 2,479 Climbing Seattle Center
Sat 08:12:11 PM 45.2094 -122.9689 195° South 350 403 19,000 1,736 Climbing Seattle Center
Sat 08:13:12 PM 45.0994 -122.9653 179° South 393 452 20,800 1,721 Climbing Seattle Center
Sat 08:14:13 PM 44.9872 -122.9606 178° South 401 461 22,500 1,736 Climbing Seattle Center
Sat 08:15:13 PM 44.8722 -122.9564 179° South 408 470 24,300 1,636 Climbing Seattle Center
Sat 08:16:14 PM 44.7553 -122.9525 179° South 413 475 25,800 1,475 Climbing Seattle Center
Sat 08:17:15 PM 44.6344 -122.9478 178° South 426 490 27,300 2,033 Climbing Seattle Center
Sat 08:18:15 PM 44.5161 -122.9436 179° South 428 493 29,900 1,934 Climbing Seattle Center
Sat 08:19:16 PM 44.4039 -122.9403 179° South 407 468 31,200 1,140 Climbing Seattle Center
Sat 08:20:16 PM 44.2769 -122.9358 179° South 413 475 32,200 1,041 Climbing Seattle Center
Sat 08:21:17 PM 44.1561 -122.9314 178° South 424 488 33,300 1,131 Climbing Seattle Center
Sat 08:22:18 PM 44.0364 -122.9281 179° South 424 488 34,500 793 Climbing Seattle Center
Sat 08:23:18 PM 43.9183 -122.9250 179° South 424 488 34,900 198 Climbing Seattle Center
Sat 08:24:19 PM 43.7997 -122.9211 179° South 424 488 34,900  Level Seattle Center
Sat 08:25:20 PM 43.6817 -122.9169 179° South 424 488 34,900  Level Seattle Center
Sat 08:26:20 PM 43.5625 -122.9142 179° South 425 489 34,900  Level Seattle Center
Sat 08:27:21 PM 43.4436 -122.9108 179° South 425 489 34,900  Level Seattle Center
Sat 08:28:22 PM 43.3256 -122.9086 179° South 425 489 34,900  Level Seattle Center
Sat 08:29:22 PM 43.2081 -122.9036 178° South 425 489 34,900  Level Seattle Center
Sat 08:30:23 PM 43.0889 -122.9014 179° South 425 489 34,900  Level Seattle Center
Sat 08:31:23 PM 42.9697 -122.8983 179° South 426 490 34,900  Level Seattle Center
Sat 08:32:24 PM 42.8511 -122.8942 179° South 426 490 34,900  Level Seattle Center
Sat 08:33:25 PM 42.7247 -122.8892 178° South 426 490 34,900  Level Seattle Center
Sat 08:34:25 PM 42.6064 -122.8861 179° South 427 491 34,900  Level Seattle Center
Sat 08:35:26 PM 42.4869 -122.8833 179° South 427 491 34,900  Level Seattle Center
Sat 08:36:27 PM 42.3686 -122.8786 178° South 428 493 34,900  Level Seattle Center
Sat 08:37:27 PM 42.2503 -122.8750 179° South 428 493 34,900  Level Seattle Center
Sat 08:38:28 PM 42.1308 -122.8722 179° South 428 493 34,900  Level Seattle Center
Sat 08:39:29 PM 41.9889 -122.8683 179° South 429 494 34,900  Level Seattle Center
Sat 08:40:29 PM 41.8714 -122.8667 179° South 427 491 34,900  Level Seattle Center
Sat 08:41:30 PM 41.7525 -122.8625 179° South 427 491 34,900  Level Seattle Center
Sat 08:42:31 PM 41.6328 -122.8583 179° South 429 494 34,900  Level Seattle Center
Sat 08:43:31 PM 41.5142 -122.8569 179° South 429 494 34,900  Level Seattle Center
Sat 08:44:32 PM 41.3886 -122.8533 179° South 429 494 34,900  Level Seattle Center
Sat 08:45:33 PM 41.2700 -122.8508 179° South 429 494 34,900  Level Seattle Center
Sat 08:46:33 PM 41.1519 -122.8408 176° South 428 493 34,900  Level Seattle Center
Sat 08:47:31 PM 41.0328 -122.8358 178° South 428 493 34,900  Level Oakland Center
Sat 08:48:32 PM 40.9144 -122.8286 177° South 428 493 34,900  Level Oakland Center
Sat 08:49:35 PM 40.7978 -122.8206 177° South 426 490 34,900  Level Seattle Center
Sat 08:50:36 PM 40.6811 -122.8142 178° South 425 489 34,900  Level Seattle Center
Sat 08:51:35 PM 40.5606 -122.8072 177° South 426 490 34,900  Level Oakland Center
Sat 08:52:36 PM 40.4406 -122.7997 177° South 430 495 34,900  Level Oakland Center
Sat 08:53:37 PM 40.3211 -122.7933 178° South 432 497 34,900  Level Oakland Center
Sat 08:54:38 PM 40.2019 -122.7861 177° South 432 497 34,900  Level Oakland Center
Sat 08:55:39 PM 40.0586 -122.7739 176° South 432 497 34,900  Level Oakland Center
Sat 08:56:40 PM 39.9386 -122.7650 177° South 433 498 34,900  Level Oakland Center
Sat 08:57:41 PM 39.8186 -122.7544 176° South 433 498 34,900  Level Oakland Center
Sat 08:58:43 PM 39.6978 -122.7425 176° South 435 501 34,900 -439 Level Oakland Center
Sat 08:59:44 PM 39.5750 -122.7339 177° South 443 510 34,000 -934 Descending Oakland Center
Sat 09:00:45 PM 39.4569 -122.7236 176° South 431 496 33,000 -1,033 Descending Oakland Center
Sat 09:01:46 PM 39.3392 -122.7139 176° South 429 494 31,900 -2,262 Descending Oakland Center
Sat 09:02:47 PM 39.1972 -122.7022 176° South 444 511 28,400 -2,705 Descending Oakland Center
Sat 09:03:48 PM 39.0897 -122.6947 177° South 445 512 26,400 -2,066 Descending Oakland Center
Sat 09:04:49 PM 38.9714 -122.6847 176° South 433 498 24,200 -1,869 Descending Oakland Center
Sat 09:05:50 PM 38.8411 -122.6747 177° South 423 487 22,600 -2,164 Descending Oakland Center
Sat 09:06:51 PM 38.7236 -122.6653 176° South 423 487 19,800 -2,607 Descending Oakland Center
Sat 09:07:52 PM 38.6094 -122.6561 176° South 416 479 17,300 -2,508 Descending Oakland Center
Sat 09:08:53 PM 38.4986 -122.6464 176° South 406 467 14,700 -2,361 Descending Oakland Center
Sat 09:09:54 PM 38.3914 -122.6244 171° South 394 453 12,500 -2,016 Descending Oakland Center
Sat 09:10:55 PM 38.2903 -122.6058 172° South 371 427 10,600 -1,328 Descending Oakland Center
Sat 09:11:56 PM 38.1978 -122.5889 172° South 340 391 9,800 -1,082 Descending Oakland Center
Sat 09:12:57 PM 38.1167 -122.5736 172° South 301 346 8,400 -1,082 Descending Oakland Center
Sat 09:13:58 PM 38.0386 -122.5522 168° South 296 341 7,600 -984 Descending Oakland Center
Sat 09:14:59 PM 37.9814 -122.4908 140° Southeast 271 312 6,400 -1,230 Descending Oakland Center
Sat 09:16:00 PM 37.9367 -122.4194 128° Southeast 259 298 5,100 -689 Descending Oakland Center
Sat 09:17:01 PM 37.9006 -122.3369 119° Southeast 259 298 5,000 -49 Descending Oakland Center
Sat 09:18:02 PM 37.8589 -122.2386 118° Southeast 260 299 5,000  Level Oakland Center
Sat 09:18:50 PM 37.8333 -122.1667 114° Southeast 270 311 5,000  Level Northern Cal TRACON
Sat 09:19:56 PM 37.8000 -122.0833 117° Southeast 256 295 5,000  Level Northern Cal TRACON
Sat 09:20:56 PM 37.7833 -122.0000 104° East 246 283 5,000  Level Northern Cal TRACON
Sat 09:21:56 PM 37.7667 -121.9167 104° East 248 285 5,000  Level Northern Cal TRACON
Sat 09:22:50 PM 37.7167 -121.8833 152° Southeast 236 272 5,000  Level Northern Cal TRACON
Sat 09:23:56 PM 37.6667 -121.9333 218° Southwest 202 232 5,000  Level Northern Cal TRACON
Sat 09:24:50 PM 37.6167 -121.9167 165° South 220 253 5,000  Level Northern Cal TRACON
Sat 09:25:50 PM 37.5833 -121.8500 122° Southeast 202 232 5,000 -150 Level Northern Cal TRACON
Sat 09:26:50 PM 37.5500 -121.8833 218° Southwest 188 216 4,700 -450 Descending Northern Cal TRACON
Sat 09:27:50 PM 37.5667 -121.9500 288° West 178 205 4,100 -550 Descending Northern Cal TRACON
Sat 09:28:50 PM 37.5667 -122.0167 270° West 176 203 3,600 -550 Descending Northern Cal TRACON
Sat 09:29:50 PM 37.6000 -122.0667 310° West 180 207 3,000 -650 Descending Northern Cal TRACON
Sat 09:30:50 PM 37.6333 -122.1000 322° Northwest 168 193 2,300 -700 Descending Northern Cal TRACON
Sat 09:31:50 PM 37.6500 -122.1500 293° West 145 167 1,600 -714 Descending Northern Cal TRACON
Sat 09:32:56 PM 37.6833 -122.1833 322° Northwest 141 162 800 -727 Descending Northern Cal TRACON

Login

Don't have an account? Register now (free) for customized features, flight alerts, and more!